KAMA/AMA METAR and TAF weather

Enter ICAO airport designator
Station Type Date Time Source
KAMA METAR 2021/04/13 06:53 UTC NOAA

KAMA 130653Z AUTO 01006KT 10SM CLR 03/M05 A3016 RMK AO2 SLP205 T00331050


Station Type Date Time Source
KAMA Decoded METAR 2021/04/13 06:53 UTC NOAA

AMARILLO INTERNATIONAL AIRPORT, TX, United States (KAMA) 35-13N 101-43W 1093M
Apr 13, 2021 - 02:53 AM EDT / 2021.04.13 0653 UTC
Wind: from the N (010 degrees) at 7 MPH (6 KT):0
Visibility: 10 mile(s):0
Sky conditions: clear
Temperature: 37.9 F (3.3 C)
Dew Point: 23.0 F (-5.0 C)
Relative Humidity: 54%
Pressure (altimeter): 30.16 in. Hg (1021 hPa)
ob: KAMA 130653Z AUTO 01006KT 10SM CLR 03/M05 A3016 RMK AO2 SLP205 T00331050
cycle: 7

Station Type Date Time Source
KAMA TAF 2021/04/13 06:33 UTC NOAA

TAF KAMA 130531Z 1306/1406 05010KT P6SM SCT100 BKN300
FM131200 05011KT P6SM BKN100 BKN300
FM131600 09012KT P6SM BKN100 PROB30 1318/1321 4SM -SHRA SCT050 BKN080

Example: see airport list